Terminal Aerodrome Forecast
Issued by NWS Bismarck, ND

Home | Current Version | Previous Version | Text Only | Print | Product List | Glossary On
Versions: 1 2 3 4 5 6 7 8 9 10 11 12 13 14 15 16 17 18 19 20 21
000
FTUS43 KBIS 182300
TAFBIS
TAF
KBIS 182335Z 1900/1924 15006KT P6SM OVC012
      TEMPO 1904/1908 OVC008
     FM190800 14005KT P6SM SCT012
     FM191600 17005KT P6SM SCT100=

USA.gov is the U.S. government's official web portal to all federal, state and local government web resources and services.